Time;durP1;ratioP1;P1;durP2;ratioP2;P2;SDS_P1;SDS_P2;PMS_P1;PMS_P2;Temp;Humidity;BMP_temperature;BMP_pressure;BME280_temperature;BME280_humidity;BME280_pressure;Samples;Min_cycle;Max_cycle;Signal;HPM_P1;HPM_P2
2022/03/21 00:03:07;;;;;;;13.43;8.55;;;7.00;99.90;;;;;;7290089;32;20104;-60
2022/03/21 00:07:09;;;;;;;15.93;9.10;;;7.00;99.90;;;;;;7292053;32;20126;-60
2022/03/21 00:11:11;;;;;;;18.67;9.43;;;6.80;99.90;;;;;;7280047;32;20190;-59
2022/03/21 00:15:14;;;;;;;17.60;9.30;;;6.80;99.90;;;;;;7288999;32;20483;-60
2022/03/21 00:19:16;;;;;;;14.73;8.63;;;6.80;99.90;;;;;;7287598;32;20650;-60
2022/03/21 00:23:17;;;;;;;14.80;8.85;;;6.70;99.90;;;;;;7290564;32;20474;-59
2022/03/21 00:27:19;;;;;;;13.93;9.25;;;6.70;99.90;;;;;;7285655;32;20111;-59
2022/03/21 00:31:21;;;;;;;17.77;9.90;;;6.70;99.90;;;;;;7285859;32;20472;-60
2022/03/21 00:35:23;;;;;;;14.95;9.30;;;6.70;99.90;;;;;;7292195;32;20583;-61
2022/03/21 00:39:24;;;;;;;22.00;9.93;;;6.70;99.90;;;;;;7290124;32;20181;-60
2022/03/21 00:43:26;;;;;;;16.45;9.10;;;6.60;99.90;;;;;;7293356;32;20139;-60
2022/03/21 00:47:28;;;;;;;16.90;9.80;;;6.60;99.90;;;;;;7289430;32;20220;-59
2022/03/21 00:51:30;;;;;;;15.20;10.27;;;6.50;99.90;;;;;;7285999;32;20101;-60
2022/03/21 00:55:31;;;;;;;15.27;9.80;;;6.50;99.90;;;;;;7295629;32;20432;-59
2022/03/21 00:59:33;;;;;;;21.60;10.65;;;6.40;99.90;;;;;;7290975;32;20121;-60
2022/03/21 01:03:35;;;;;;;16.52;9.70;;;6.40;99.90;;;;;;7296254;32;20489;-59
2022/03/21 01:07:38;;;;;;;16.70;10.50;;;6.50;99.90;;;;;;7296603;32;20637;-60
2022/03/21 01:11:40;;;;;;;15.90;9.63;;;6.50;99.90;;;;;;7293592;32;20538;-60
2022/03/21 01:15:41;;;;;;;20.00;10.10;;;6.50;99.90;;;;;;7293196;32;20104;-59
2022/03/21 01:19:43;;;;;;;19.48;10.57;;;6.40;99.90;;;;;;7293971;32;20500;-60
2022/03/21 01:23:45;;;;;;;19.80;10.55;;;6.50;99.90;;;;;;7292914;32;20108;-60
2022/03/21 01:27:46;;;;;;;15.20;9.82;;;6.50;99.90;;;;;;7287356;32;20860;-60
2022/03/21 01:31:48;;;;;;;20.33;10.50;;;6.40;99.90;;;;;;7297083;32;20122;-61
2022/03/21 01:35:50;;;;;;;16.27;8.85;;;6.30;99.90;;;;;;7286041;32;20189;-59
2022/03/21 01:39:51;;;;;;;17.58;10.35;;;6.20;99.90;;;;;;7294764;32;20156;-59
2022/03/21 01:44:02;;;;;;;21.23;11.02;;;6.20;99.90;;;;;;7294176;32;20210;-60
2022/03/21 01:48:04;;;;;;;18.25;10.40;;;6.20;99.90;;;;;;7295338;32;20099;-60
2022/03/21 01:52:06;;;;;;;20.02;11.12;;;6.20;99.90;;;;;;7291935;32;20200;-59
2022/03/21 01:56:08;;;;;;;22.52;11.15;;;6.20;99.90;;;;;;7294896;32;20265;-60
2022/03/21 02:00:09;;;;;;;18.70;10.05;;;6.20;99.90;;;;;;7276984;32;20131;-59
2022/03/21 02:04:11;;;;;;;19.17;11.12;;;6.30;99.90;;;;;;7294321;32;20194;-60
2022/03/21 02:08:14;;;;;;;23.02;10.98;;;6.20;99.90;;;;;;7290523;32;20218;-59
2022/03/21 02:12:15;;;;;;;20.20;10.90;;;6.30;99.90;;;;;;7293727;32;20115;-60
2022/03/21 02:16:17;;;;;;;18.35;10.68;;;6.30;99.90;;;;;;7296694;32;20550;-61
2022/03/21 02:20:20;;;;;;;18.87;10.38;;;6.20;99.90;;;;;;7292561;32;20127;-60
2022/03/21 02:24:51;;;;;;;17.20;10.13;;;6.20;99.90;;;;;;7294064;32;20795;-60
2022/03/21 02:28:54;;;;;;;17.65;9.88;;;6.20;99.90;;;;;;7293337;32;20906;-59
2022/03/21 02:32:58;;;;;;;16.15;9.63;;;6.20;99.90;;;;;;7294661;32;20239;-60
2022/03/21 02:37:00;;;;;;;16.30;9.02;;;6.10;99.90;;;;;;7287889;32;20423;-60
2022/03/21 02:41:02;;;;;;;17.60;8.77;;;6.00;99.90;;;;;;7295849;32;20108;-60
2022/03/21 02:45:05;;;;;;;17.58;8.63;;;6.00;99.90;;;;;;7295925;32;20314;-60
2022/03/21 02:49:07;;;;;;;14.23;8.15;;;5.90;99.90;;;;;;7295027;32;20541;-59
2022/03/21 02:53:10;;;;;;;15.38;8.40;;;5.80;99.90;;;;;;7291655;32;20130;-59
2022/03/21 02:57:12;;;;;;;16.98;8.98;;;5.70;99.90;;;;;;7294644;32;20190;-59
2022/03/21 03:01:16;;;;;;;13.68;8.57;;;5.60;99.90;;;;;;7293652;32;20127;-59
2022/03/21 03:05:18;;;;;;;14.27;9.57;;;5.50;99.90;;;;;;7288504;32;20144;-60
2022/03/21 03:09:21;;;;;;;18.90;10.23;;;5.40;99.90;;;;;;7289174;32;20511;-59
2022/03/21 03:13:23;;;;;;;18.77;10.55;;;5.30;99.90;;;;;;7291039;32;20508;-59
2022/03/21 03:17:24;;;;;;;21.67;11.12;;;5.30;99.90;;;;;;7293923;32;20130;-59
2022/03/21 03:21:37;;;;;;;21.12;11.48;;;5.10;99.90;;;;;;7291028;32;20099;-59
2022/03/21 03:25:39;;;;;;;16.45;10.50;;;5.00;99.90;;;;;;7291436;32;20126;-59
2022/03/21 03:29:41;;;;;;;23.15;11.35;;;5.00;99.90;;;;;;7279947;32;20131;-59
2022/03/21 03:33:45;;;;;;;19.58;10.70;;;4.80;99.90;;;;;;7287878;32;20119;-58
2022/03/21 03:37:47;;;;;;;18.00;10.73;;;4.80;99.90;;;;;;7286655;32;20254;-59
2022/03/21 03:41:48;;;;;;;15.70;10.05;;;4.70;99.90;;;;;;7290396;32;20103;-61
2022/03/21 03:45:52;;;;;;;17.23;10.57;;;4.60;99.90;;;;;;7291087;32;21115;-59
2022/03/21 03:49:54;;;;;;;24.10;11.23;;;4.50;99.90;;;;;;7290400;32;20230;-59
2022/03/21 03:53:56;;;;;;;19.48;11.60;;;4.50;99.90;;;;;;7289551;32;20107;-58
2022/03/21 03:57:57;;;;;;;16.70;11.07;;;4.50;99.90;;;;;;7284580;32;20292;-59
2022/03/21 04:01:59;;;;;;;23.23;12.18;;;4.40;99.90;;;;;;7288804;32;20120;-58
2022/03/21 04:06:01;;;;;;;22.52;12.43;;;4.40;99.90;;;;;;7288168;32;20127;-59
2022/03/21 04:10:03;;;;;;;20.52;11.30;;;4.30;99.90;;;;;;7286366;32;20224;-59
2022/03/21 04:14:04;;;;;;;24.80;12.23;;;4.20;99.90;;;;;;7284802;32;20104;-58
2022/03/21 04:18:06;;;;;;;18.50;11.40;;;4.20;99.90;;;;;;7290343;32;20124;-59
2022/03/21 04:22:08;;;;;;;18.85;11.35;;;4.10;99.90;;;;;;7284195;32;20364;-58
2022/03/21 04:26:12;;;;;;;23.50;12.70;;;4.10;99.90;;;;;;7292417;32;20163;-59
2022/03/21 04:30:13;;;;;;;20.42;12.35;;;4.10;99.90;;;;;;7296473;32;20650;-59
2022/03/21 04:34:15;;;;;;;23.33;12.80;;;4.20;99.90;;;;;;7289441;32;20122;-59
2022/03/21 04:38:17;;;;;;;20.02;12.32;;;4.20;99.90;;;;;;7291408;32;20130;-58
2022/03/21 04:42:19;;;;;;;21.70;13.18;;;4.20;99.90;;;;;;7294263;32;20142;-59
2022/03/21 04:46:20;;;;;;;19.42;12.02;;;4.20;99.90;;;;;;7294935;32;20475;-58
2022/03/21 04:50:22;;;;;;;22.37;12.18;;;4.20;99.90;;;;;;7294144;32;20118;-58
2022/03/21 04:54:28;;;;;;;22.62;12.45;;;4.10;99.90;;;;;;7292757;32;20330;-59
2022/03/21 04:58:30;;;;;;;22.83;12.37;;;4.10;99.90;;;;;;7292368;32;20145;-58
2022/03/21 05:02:31;;;;;;;24.20;13.00;;;4.10;99.90;;;;;;7294326;32;20096;-59
2022/03/21 05:06:34;;;;;;;18.87;11.43;;;4.10;99.90;;;;;;7289935;32;20126;-58
2022/03/21 05:10:36;;;;;;;19.62;11.48;;;4.10;99.90;;;;;;7295345;32;20131;-59
2022/03/21 05:14:38;;;;;;;19.10;11.00;;;4.00;99.90;;;;;;7289202;32;20283;-59
2022/03/21 05:18:43;;;;;;;21.10;11.30;;;3.90;99.90;;;;;;7289486;32;20194;-59
2022/03/21 05:31:28;;;;;;;21.20;11.93;;;3.70;99.90;;;;;;7280263;32;20191;-59
2022/03/21 05:44:11;;;;;;;18.75;11.48;;;3.50;99.90;;;;;;7283920;32;20455;-59
2022/03/21 05:52:33;;;;;;;23.08;11.05;;;3.40;99.90;;;;;;7282160;32;20449;-59
2022/03/21 05:56:35;;;;;;;20.70;12.27;;;3.30;99.90;;;;;;7294494;32;20249;-60
2022/03/21 06:00:38;;;;;;;22.55;12.70;;;3.30;99.90;;;;;;7289985;32;20183;-62
2022/03/21 06:04:40;;;;;;;22.80;13.50;;;3.30;99.90;;;;;;7293085;32;20253;-61
2022/03/21 06:08:43;;;;;;;22.35;11.93;;;3.30;99.90;;;;;;7294490;32;20758;-60
2022/03/21 06:12:45;;;;;;;22.67;11.93;;;3.30;99.90;;;;;;7294038;32;20134;-63
2022/03/21 06:16:47;;;;;;;25.23;12.52;;;3.30;99.90;;;;;;7288387;32;20101;-61
2022/03/21 06:20:49;;;;;;;18.45;12.23;;;3.30;99.90;;;;;;7291499;32;20112;-61
2022/03/21 06:24:51;;;;;;;18.55;11.70;;;3.40;99.90;;;;;;7284802;32;20223;-62
2022/03/21 06:28:52;;;;;;;19.15;12.82;;;3.40;99.90;;;;;;7289569;32;20100;-63
2022/03/21 06:32:54;;;;;;;32.95;17.98;;;3.50;99.90;;;;;;7291850;32;20777;-59
2022/03/21 06:36:56;;;;;;;21.10;12.55;;;3.50;99.90;;;;;;7286044;32;20208;-59
2022/03/21 06:40:58;;;;;;;20.85;12.57;;;3.60;99.90;;;;;;7289498;32;20268;-61
2022/03/21 06:45:00;;;;;;;22.08;13.05;;;3.70;99.90;;;;;;7289531;32;20127;-62
2022/03/21 06:49:03;;;;;;;23.23;12.95;;;3.70;99.90;;;;;;7288797;32;20190;-60
2022/03/21 06:53:17;;;;;;;18.75;11.98;;;3.90;99.90;;;;;;7291154;32;20108;-61
2022/03/21 06:57:19;;;;;;;23.25;13.00;;;3.90;99.90;;;;;;7276034;32;20211;-60
2022/03/21 07:01:21;;;;;;;24.37;13.00;;;4.00;99.90;;;;;;7292563;32;20647;-60
2022/03/21 07:05:25;;;;;;;32.88;14.43;;;4.10;99.90;;;;;;7282725;32;20179;-61
2022/03/21 07:09:27;;;;;;;22.55;13.15;;;4.30;99.90;;;;;;7293932;32;20104;-61
2022/03/21 07:13:29;;;;;;;22.15;12.50;;;4.40;99.90;;;;;;7294998;32;20200;-61
2022/03/21 07:17:31;;;;;;;21.27;12.57;;;4.60;99.90;;;;;;7294401;32;20306;-62
2022/03/21 07:21:33;;;;;;;21.60;12.63;;;4.80;99.90;;;;;;7291442;32;20203;-61
2022/03/21 07:25:35;;;;;;;21.65;14.00;;;4.90;99.90;;;;;;7289587;32;20203;-61
2022/03/21 07:29:37;;;;;;;22.73;13.48;;;5.10;99.90;;;;;;7289736;32;20601;-62
2022/03/21 07:33:40;;;;;;;22.08;14.00;;;5.30;99.90;;;;;;7286354;32;20120;-62
2022/03/21 07:37:46;;;;;;;24.42;15.18;;;5.50;99.90;;;;;;7285642;32;20112;-60
2022/03/21 07:41:48;;;;;;;24.73;14.48;;;5.70;99.90;;;;;;7284871;32;20183;-61
2022/03/21 07:50:10;;;;;;;23.85;15.90;;;6.20;99.90;;;;;;7296004;32;20881;-61
2022/03/21 07:54:13;;;;;;;22.67;14.30;;;6.50;99.90;;;;;;7291639;32;20755;-61
2022/03/21 07:58:15;;;;;;;22.05;13.15;;;7.00;99.90;;;;;;7285594;32;20175;-63
2022/03/21 08:02:19;;;;;;;19.52;13.20;;;7.40;99.90;;;;;;7279097;32;20258;-62
2022/03/21 08:06:21;;;;;;;20.70;12.88;;;8.00;99.90;;;;;;7289306;32;20810;-61
2022/03/21 08:10:24;;;;;;;19.35;12.20;;;8.30;99.90;;;;;;7290092;32;20161;-61
2022/03/21 08:14:25;;;;;;;19.40;12.93;;;8.80;99.90;;;;;;7287746;32;20112;-60
2022/03/21 08:18:27;;;;;;;20.58;12.07;;;9.30;99.90;;;;;;7289127;32;20111;-61
2022/03/21 08:22:29;;;;;;;19.92;12.63;;;9.60;99.90;;;;;;7287172;32;20123;-61
2022/03/21 08:26:30;;;;;;;16.48;10.70;;;9.90;99.90;;;;;;7286567;32;20119;-60
2022/03/21 08:30:35;;;;;;;18.30;12.43;;;10.50;99.90;;;;;;7286414;32;20185;-62
2022/03/21 08:34:37;;;;;;;19.17;12.52;;;11.30;99.90;;;;;;7285552;32;20108;-62
2022/03/21 08:38:40;;;;;;;19.10;13.38;;;12.30;99.90;;;;;;7289402;32;20194;-61
2022/03/21 08:42:42;;;;;;;18.58;12.90;;;12.90;97.80;;;;;;7268518;32;20113;-61
2022/03/21 08:46:43;;;;;;;17.77;12.75;;;13.70;95.90;;;;;;7288159;32;20128;-62
2022/03/21 08:50:45;;;;;;;20.00;12.93;;;14.10;92.10;;;;;;7288454;32;20099;-61
2022/03/21 08:54:48;;;;;;;17.50;13.10;;;14.70;91.60;;;;;;7290053;32;20158;-60
2022/03/21 08:59:03;;;;;;;18.95;13.38;;;15.10;91.50;;;;;;7286779;32;20158;-62
2022/03/21 09:03:05;;;;;;;16.50;12.57;;;15.70;89.40;;;;;;7287700;32;20785;-61
2022/03/21 09:07:08;;;;;;;22.30;13.85;;;16.50;83.30;;;;;;7286061;32;20177;-62
2022/03/21 09:11:09;;;;;;;17.80;12.73;;;16.60;78.20;;;;;;7292019;32;20696;-63
2022/03/21 09:15:12;;;;;;;19.08;13.43;;;16.80;75.30;;;;;;7292003;32;20249;-61
2022/03/21 09:19:14;;;;;;;18.83;13.20;;;16.90;72.00;;;;;;7293111;32;20111;-62
2022/03/21 09:23:16;;;;;;;17.25;13.55;;;17.00;78.90;;;;;;7293720;32;20107;-61
2022/03/21 09:27:20;;;;;;;18.52;12.48;;;17.30;69.80;;;;;;7295938;32;20122;-62
2022/03/21 09:31:22;;;;;;;18.90;12.93;;;17.60;69.00;;;;;;7291577;32;20226;-62
2022/03/21 09:35:43;;;;;;;19.98;14.05;;;18.20;69.80;;;;;;7289305;32;20104;-62
2022/03/21 09:39:45;;;;;;;17.45;13.93;;;18.70;68.80;;;;;;7291058;32;20103;-62
2022/03/21 09:43:46;;;;;;;17.60;14.25;;;18.70;66.10;;;;;;7293196;32;20112;-62
2022/03/21 09:52:09;;;;;;;16.42;13.05;;;19.80;61.30;;;;;;7280190;32;20274;-62
2022/03/21 09:56:10;;;;;;;16.05;12.63;;;20.10;59.10;;;;;;7282563;32;20179;-63
2022/03/21 10:00:12;;;;;;;21.75;12.98;;;19.30;56.70;;;;;;7286318;32;20198;-61
2022/03/21 10:04:14;;;;;;;18.58;13.55;;;19.70;55.60;;;;;;7285268;32;20919;-62
2022/03/21 10:08:22;;;;;;;17.27;13.25;;;19.90;57.10;;;;;;7283616;32;20210;-62
2022/03/21 10:12:24;;;;;;;17.50;13.88;;;20.40;57.60;;;;;;7282695;32;20570;-61
2022/03/21 10:16:26;;;;;;;16.98;12.93;;;20.80;54.60;;;;;;7279262;32;20549;-62
2022/03/21 10:20:36;;;;;;;18.08;13.38;;;21.40;52.90;;;;;;7283172;32;20237;-63
2022/03/21 10:24:48;;;;;;;18.83;13.40;;;21.70;53.40;;;;;;7264941;32;20222;-64
2022/03/21 10:28:55;;;;;;;18.30;13.77;;;22.80;50.50;;;;;;7277361;32;20210;-62
2022/03/21 10:32:58;;;;;;;;;;;23.40;50.70;;;;;;7279268;32;20637;-63
2022/03/21 10:37:00;;;;;;;19.35;13.07;;;23.30;49.00;;;;;;7285010;32;20547;-64
2022/03/21 10:41:07;;;;;;;19.50;14.27;;;23.70;50.30;;;;;;7281009;32;20564;-58
2022/03/21 10:45:09;;;;;;;19.27;14.10;;;24.30;46.60;;;;;;7278223;32;20909;-63
2022/03/21 10:49:11;;;;;;;18.62;13.00;;;24.20;45.60;;;;;;7279463;32;20205;-62
2022/03/21 10:53:18;;;;;;;15.77;12.60;;;24.10;47.20;;;;;;7284641;32;20601;-62
2022/03/21 10:57:33;;;;;;;22.52;13.85;;;23.20;47.10;;;;;;7263835;32;20742;-63
2022/03/21 11:01:36;;;;;;;18.05;12.63;;;23.10;48.00;;;;;;7281384;32;20264;-63
2022/03/21 11:05:47;;;;;;;19.12;14.68;;;22.70;50.60;;;;;;7281852;32;20282;-61
2022/03/21 11:09:48;;;;;;;18.67;13.50;;;22.20;47.90;;;;;;7282425;32;20270;-63
2022/03/21 11:13:53;;;;;;;17.60;12.95;;;22.40;50.70;;;;;;7266067;32;20211;-63
2022/03/21 11:17:57;;;;;;;17.77;12.95;;;22.10;51.30;;;;;;7280393;32;20214;-62
2022/03/21 11:22:00;;;;;;;16.87;12.57;;;22.60;50.30;;;;;;7283717;32;20764;-61
2022/03/21 11:26:08;;;;;;;19.58;14.10;;;22.50;50.40;;;;;;7277870;32;20199;-62
2022/03/21 11:30:34;;;;;;;17.58;12.45;;;22.40;50.20;;;;;;7279667;32;20206;-63
2022/03/21 11:34:54;;;;;;;21.30;12.57;;;22.50;51.70;;;;;;7279534;32;21253;-61
2022/03/21 11:39:03;;;;;;;19.20;12.13;;;21.60;52.70;;;;;;7278403;32;20187;-63
2022/03/21 11:43:17;;;;;;;20.80;13.10;;;21.80;51.90;;;;;;7262437;32;20221;-62
2022/03/21 11:47:28;;;;;;;18.52;12.63;;;21.90;51.90;;;;;;7281246;32;20314;-62
2022/03/21 11:51:41;;;;;;;18.42;12.55;;;22.00;52.60;;;;;;7279489;32;20236;-62
2022/03/21 11:55:44;;;;;;;15.30;12.35;;;21.20;53.50;;;;;;7281088;32;20208;-63
2022/03/21 12:00:16;;;;;;;15.35;11.80;;;21.50;54.80;;;;;;7281611;32;20171;-62
2022/03/21 12:04:24;;;;;;;16.30;11.93;;;21.40;55.50;;;;;;7280064;32;20178;-61
2022/03/21 12:08:52;;;;;;;16.33;10.57;;;21.80;52.10;;;;;;7279215;32;20281;-61
2022/03/21 12:12:54;;;;;;;13.13;10.02;;;22.20;55.30;;;;;;7284533;32;20107;-64
2022/03/21 12:17:01;;;;;;;12.65;10.10;;;22.10;54.00;;;;;;7284874;32;20108;-63
2022/03/21 12:21:11;;;;;;;17.27;10.70;;;22.20;54.60;;;;;;7285192;32;20212;-63
2022/03/21 12:25:41;;;;;;;13.20;9.15;;;22.20;54.60;;;;;;7286423;32;20122;-63
2022/03/21 12:29:43;;;;;;;12.07;9.20;;;21.90;53.60;;;;;;7284846;32;20108;-63
2022/03/21 12:33:45;;;;;;;13.13;9.10;;;21.40;55.80;;;;;;7281336;32;20258;-63
2022/03/21 12:37:48;;;;;;;13.40;9.00;;;21.20;56.60;;;;;;7279494;32;20504;-61
2022/03/21 12:41:50;;;;;;;11.27;7.72;;;21.00;57.60;;;;;;7279242;32;21147;-61
2022/03/21 12:46:06;;;;;;;13.82;7.47;;;20.70;57.00;;;;;;7279111;32;20572;-62
2022/03/21 12:50:22;;;;;;;14.15;7.45;;;20.20;59.50;;;;;;7283103;32;20477;-63
2022/03/21 12:54:26;;;;;;;16.40;8.73;;;20.40;60.30;;;;;;7287179;32;20100;-60
2022/03/21 12:58:28;;;;;;;10.20;7.87;;;20.20;59.50;;;;;;7293624;32;21175;-62
2022/03/21 13:02:30;;;;;;;14.38;8.18;;;20.00;59.60;;;;;;7285617;32;20182;-61
2022/03/21 13:10:54;;;;;;;13.30;7.60;;;19.60;65.50;;;;;;7289959;32;20237;-60
2022/03/21 13:15:25;;;;;;;14.75;7.22;;;19.70;61.30;;;;;;7293718;32;20124;-61
2022/03/21 13:19:29;;;;;;;10.95;7.15;;;19.70;63.00;;;;;;7277296;32;20787;-61
2022/03/21 13:23:34;;;;;;;11.57;6.93;;;19.70;62.70;;;;;;7287987;32;20126;-62
2022/03/21 13:27:36;;;;;;;11.68;6.55;;;20.30;63.90;;;;;;7291459;32;20108;-61
2022/03/21 13:31:38;;;;;;;9.45;6.28;;;20.60;60.20;;;;;;7291078;32;20352;-62
2022/03/21 13:35:51;;;;;;;10.30;6.28;;;20.60;62.10;;;;;;7291019;32;20202;-61
2022/03/21 13:40:01;;;;;;;11.57;6.87;;;20.80;61.40;;;;;;7290324;32;20559;-62
2022/03/21 13:44:05;;;;;;;13.50;6.80;;;20.60;60.30;;;;;;7277998;32;20247;-58
2022/03/21 13:48:06;;;;;;;8.98;5.62;;;20.50;62.20;;;;;;7282867;32;20103;-59
2022/03/21 13:52:08;;;;;;;10.27;6.18;;;20.90;62.80;;;;;;7281155;32;20286;-64
2022/03/21 13:56:28;;;;;;;10.63;5.65;;;21.40;61.20;;;;;;7267757;32;20191;-63
2022/03/21 14:00:32;;;;;;;7.25;5.20;;;21.60;58.30;;;;;;7282743;32;20180;-64
2022/03/21 14:04:37;;;;;;;9.90;5.90;;;21.50;57.90;;;;;;7287615;32;20230;-63
2022/03/21 14:08:38;;;;;;;10.70;6.12;;;21.60;58.10;;;;;;7276671;32;20334;-63
2022/03/21 14:12:42;;;;;;;9.27;6.20;;;21.20;57.30;;;;;;7287445;32;20183;-62
2022/03/21 14:16:43;;;;;;;10.82;6.37;;;21.30;59.10;;;;;;7270516;32;20418;-62
2022/03/21 14:20:45;;;;;;;12.82;5.57;;;21.00;58.10;;;;;;7289977;32;20104;-64
2022/03/21 14:24:47;;;;;;;8.18;6.35;;;21.20;58.60;;;;;;7279200;32;20205;-62
2022/03/21 14:28:49;;;;;;;11.30;5.60;;;21.30;59.10;;;;;;7278670;32;20217;-63
2022/03/21 14:32:51;;;;;;;10.02;6.00;;;21.60;58.90;;;;;;7283496;32;20179;-64
2022/03/21 14:36:54;;;;;;;12.65;5.62;;;21.30;58.40;;;;;;7281211;32;20191;-59
2022/03/21 14:40:56;;;;;;;12.37;5.20;;;21.10;59.50;;;;;;7281590;32;20293;-59
2022/03/21 14:44:58;;;;;;;10.38;5.20;;;21.00;58.70;;;;;;7283706;32;20208;-58
2022/03/21 14:49:00;;;;;;;8.35;5.10;;;20.70;61.00;;;;;;7282868;32;20622;-59
2022/03/21 14:53:03;;;;;;;11.15;6.82;;;20.70;61.80;;;;;;7281237;32;20174;-62
2022/03/21 14:57:04;;;;;;;8.02;5.20;;;20.60;59.30;;;;;;7278793;32;20111;-62
2022/03/21 15:01:08;;;;;;;10.65;5.78;;;20.00;62.70;;;;;;7276883;32;20130;-64
2022/03/21 15:05:10;;;;;;;9.48;5.82;;;19.50;64.90;;;;;;7279224;32;20524;-63
2022/03/21 15:09:11;;;;;;;15.63;6.40;;;19.30;68.80;;;;;;7281258;32;20175;-63
2022/03/21 15:13:16;;;;;;;10.13;5.40;;;18.90;66.20;;;;;;7283524;32;21057;-60
2022/03/21 15:17:18;;;;;;;10.13;5.95;;;18.10;67.80;;;;;;7280160;32;20268;-64
2022/03/21 15:21:22;;;;;;;9.35;5.62;;;17.90;70.00;;;;;;7281439;32;20197;-61
2022/03/21 15:25:24;;;;;;;8.23;5.10;;;17.90;73.20;;;;;;7286115;32;20205;-63
2022/03/21 15:29:40;;;;;;;11.73;4.25;;;17.80;71.40;;;;;;7283101;32;20208;-61
2022/03/21 15:33:41;;;;;;;11.15;5.70;;;17.90;73.10;;;;;;7280897;32;20243;-61
2022/03/21 15:42:04;;;;;;;9.20;4.85;;;17.80;71.60;;;;;;7265116;32;20248;-62
2022/03/21 15:46:11;;;;;;;;;;;17.90;74.00;;;;;;7268827;32;20201;-61
2022/03/21 15:50:13;;;;;;;11.80;5.20;;;17.80;74.10;;;;;;7281051;32;20141;-62
2022/03/21 15:54:15;;;;;;;9.45;4.87;;;18.00;73.40;;;;;;7281379;32;20178;-64
2022/03/21 15:58:18;;;;;;;11.43;5.65;;;17.90;74.30;;;;;;7277789;32;20176;-63
2022/03/21 16:02:20;;;;;;;8.88;4.85;;;17.80;75.70;;;;;;7268920;32;20919;-62
2022/03/21 16:06:22;;;;;;;10.30;6.30;;;17.60;79.90;;;;;;7281013;32;20395;-61
2022/03/21 16:10:24;;;;;;;7.18;4.68;;;17.40;76.50;;;;;;7280765;32;21651;-62
2022/03/21 16:14:26;;;;;;;10.93;5.20;;;17.40;83.60;;;;;;7276023;32;20187;-61
2022/03/21 16:18:34;;;;;;;10.55;4.90;;;17.20;77.60;;;;;;7282105;32;20795;-61
2022/03/21 16:22:37;;;;;;;8.13;5.03;;;17.20;79.20;;;;;;7287272;32;20577;-62
2022/03/21 16:26:39;;;;;;;10.43;6.03;;;17.10;83.30;;;;;;7292380;32;20980;-61
2022/03/21 16:30:42;;;;;;;7.75;4.75;;;16.80;80.70;;;;;;7292728;32;20196;-61
2022/03/21 16:34:47;;;;;;;12.20;5.35;;;16.70;80.50;;;;;;7292950;32;20155;-61
2022/03/21 16:38:53;;;;;;;13.05;5.72;;;16.60;80.90;;;;;;7291806;32;20312;-58
2022/03/21 16:43:15;;;;;;;9.13;4.95;;;16.50;83.90;;;;;;7292220;32;20158;-61
2022/03/21 16:47:17;;;;;;;7.37;5.25;;;16.40;85.50;;;;;;7292218;32;20146;-62
2022/03/21 16:51:25;;;;;;;6.35;4.53;;;16.30;90.00;;;;;;7289806;32;20122;-62
2022/03/21 16:55:27;;;;;;;11.50;5.65;;;16.20;94.10;;;;;;7286909;32;20132;-61
2022/03/21 16:59:28;;;;;;;7.40;5.00;;;16.00;93.40;;;;;;7283990;32;20108;-62
2022/03/21 17:03:30;;;;;;;7.97;4.78;;;15.90;93.20;;;;;;7287952;32;20182;-61
2022/03/21 17:07:32;;;;;;;10.88;5.72;;;15.70;97.50;;;;;;7293971;32;20112;-61
2022/03/21 17:11:35;;;;;;;8.65;4.72;;;15.60;97.70;;;;;;7290343;32;20104;-62
2022/03/21 17:15:39;;;;;;;7.07;4.80;;;15.40;99.90;;;;;;7291616;32;20120;-61
2022/03/21 17:24:01;;;;;;;11.20;4.72;;;15.00;99.90;;;;;;7292429;32;21430;-60
2022/03/21 17:28:04;;;;;;;11.52;5.22;;;14.80;99.90;;;;;;7290346;32;20615;-60
2022/03/21 17:32:11;;;;;;;;;;;14.60;99.90;;;;;;7289687;32;20196;-60
2022/03/21 17:36:29;;;;;;;9.25;5.35;;;14.30;99.90;;;;;;7294987;32;20053;-61
2022/03/21 17:40:30;;;;;;;16.17;4.95;;;14.00;99.90;;;;;;7293200;32;20125;-61
2022/03/21 17:44:32;;;;;;;10.32;5.25;;;13.80;99.90;;;;;;7297440;32;20455;-61
2022/03/21 17:48:36;;;;;;;12.63;5.18;;;13.50;99.90;;;;;;7295643;32;20150;-62
2022/03/21 17:52:38;;;;;;;9.38;6.00;;;13.30;99.90;;;;;;7304964;32;20507;-61
2022/03/21 17:56:40;;;;;;;11.65;5.00;;;13.10;99.90;;;;;;7299206;32;20124;-61
2022/03/21 18:00:50;;;;;;;8.52;4.72;;;12.80;99.90;;;;;;7300163;32;20100;-61
2022/03/21 18:04:53;;;;;;;10.85;5.45;;;12.60;99.90;;;;;;7298777;32;20130;-62
2022/03/21 18:08:55;;;;;;;15.38;5.85;;;12.30;99.90;;;;;;7297489;32;20562;-61
2022/03/21 18:12:57;;;;;;;8.05;4.70;;;12.10;99.90;;;;;;7297847;32;20527;-62
2022/03/21 18:16:59;;;;;;;9.25;5.10;;;11.90;99.90;;;;;;7296729;32;20127;-62
2022/03/21 18:21:03;;;;;;;11.90;6.05;;;11.70;99.90;;;;;;7292648;32;20704;-60
2022/03/21 18:25:05;;;;;;;12.73;5.60;;;11.50;99.90;;;;;;7293525;32;20305;-62
2022/03/21 18:29:07;;;;;;;11.68;6.07;;;11.30;99.90;;;;;;7291184;32;20202;-63
2022/03/21 18:33:09;;;;;;;16.65;5.70;;;11.20;99.90;;;;;;7293692;32;20108;-62
2022/03/21 18:37:10;;;;;;;13.75;5.68;;;11.00;99.90;;;;;;7286213;32;20207;-62
2022/03/21 18:41:14;;;;;;;9.23;5.50;;;10.80;99.90;;;;;;7277531;32;20108;-61
2022/03/21 18:45:21;;;;;;;12.50;6.07;;;10.70;99.90;;;;;;7279572;32;20104;-59
2022/03/21 18:49:23;;;;;;;14.75;6.75;;;10.50;99.90;;;;;;7288296;32;20796;-62
2022/03/21 18:53:25;;;;;;;10.38;6.78;;;10.40;99.90;;;;;;7288154;32;20112;-60
2022/03/21 18:57:27;;;;;;;11.38;6.15;;;10.20;99.90;;;;;;7273808;32;20858;-61
2022/03/21 19:01:29;;;;;;;14.40;6.55;;;10.00;99.90;;;;;;7290433;32;20124;-62
2022/03/21 19:05:31;;;;;;;10.48;6.75;;;9.90;99.90;;;;;;7291070;32;20107;-62
2022/03/21 19:09:34;;;;;;;13.95;6.95;;;9.80;99.90;;;;;;7292850;32;20126;-62
2022/03/21 19:13:35;;;;;;;13.45;6.93;;;9.70;99.90;;;;;;7291383;32;20582;-61
2022/03/21 19:17:37;;;;;;;11.18;6.57;;;9.50;99.90;;;;;;7290961;32;20808;-62
2022/03/21 19:21:40;;;;;;;12.52;7.32;;;9.40;99.90;;;;;;7287965;32;20214;-63
2022/03/21 19:25:42;;;;;;;10.57;7.10;;;9.30;99.90;;;;;;7284197;32;20130;-63
2022/03/21 19:29:44;;;;;;;14.60;7.97;;;9.10;99.90;;;;;;7288826;32;20142;-62
2022/03/21 19:33:46;;;;;;;12.80;7.55;;;9.10;99.90;;;;;;7287840;32;20115;-57
2022/03/21 19:37:49;;;;;;;15.20;8.63;;;8.90;99.90;;;;;;7282081;32;20283;-62
2022/03/21 19:41:50;;;;;;;13.75;7.95;;;8.80;99.90;;;;;;7285726;32;20187;-62
2022/03/21 19:45:54;;;;;;;13.32;8.00;;;8.70;99.90;;;;;;7285619;32;20239;-63
2022/03/21 19:49:56;;;;;;;11.85;7.93;;;8.60;99.90;;;;;;7287374;32;20186;-62
2022/03/21 19:53:58;;;;;;;16.55;8.30;;;8.60;99.90;;;;;;7288375;32;20261;-63
2022/03/21 19:58:00;;;;;;;18.62;8.32;;;8.40;99.90;;;;;;7285972;32;20203;-62
2022/03/21 20:02:02;;;;;;;16.73;8.10;;;8.40;99.90;;;;;;7287367;32;20146;-62
2022/03/21 20:06:08;;;;;;;14.80;8.38;;;8.30;99.90;;;;;;7286231;32;20124;-62
2022/03/21 20:10:12;;;;;;;13.00;8.10;;;8.20;99.90;;;;;;7286563;32;20218;-63
2022/03/21 20:14:14;;;;;;;15.38;8.02;;;8.10;99.90;;;;;;7294010;32;20222;-64
2022/03/21 20:18:15;;;;;;;16.62;8.32;;;8.00;99.90;;;;;;7293981;32;20112;-62
2022/03/21 20:22:17;;;;;;;17.95;8.77;;;7.90;99.90;;;;;;7294918;32;20704;-62
2022/03/21 20:26:23;;;;;;;16.52;8.77;;;7.80;99.90;;;;;;7286616;32;20108;-61
2022/03/21 20:30:25;;;;;;;17.08;9.30;;;7.80;99.90;;;;;;7287305;32;20187;-61
2022/03/21 20:34:28;;;;;;;13.25;9.05;;;7.70;99.90;;;;;;7261148;32;20821;-62
2022/03/21 20:38:30;;;;;;;13.82;8.88;;;7.60;99.90;;;;;;7283445;32;20194;-61
2022/03/21 20:42:32;;;;;;;15.35;9.20;;;7.50;99.90;;;;;;7283984;32;20218;-62
2022/03/21 20:46:34;;;;;;;17.70;9.55;;;7.40;99.90;;;;;;7284634;32;20240;-61
2022/03/21 20:50:35;;;;;;;16.80;8.85;;;7.40;99.90;;;;;;7292137;32;20190;-63
2022/03/21 20:54:39;;;;;;;14.02;8.80;;;7.30;99.90;;;;;;7282751;32;20169;-63
2022/03/21 20:58:41;;;;;;;13.88;8.60;;;7.30;99.90;;;;;;7283181;32;20198;-62
2022/03/21 21:02:42;;;;;;;16.48;9.85;;;7.20;99.90;;;;;;7289042;32;20616;-62
2022/03/21 21:06:44;;;;;;;17.33;9.90;;;7.20;99.90;;;;;;7285365;32;20179;-63
2022/03/21 21:10:52;;;;;;;17.23;10.18;;;7.10;99.90;;;;;;7280707;32;20130;-60
2022/03/21 21:14:53;;;;;;;16.55;9.30;;;7.00;99.90;;;;;;7290345;32;20852;-63
2022/03/21 21:18:55;;;;;;;19.55;9.88;;;7.00;99.90;;;;;;7290079;32;20130;-61
2022/03/21 21:22:57;;;;;;;21.15;9.52;;;7.00;99.90;;;;;;7290695;32;20107;-63
2022/03/21 21:27:01;;;;;;;14.25;9.30;;;7.00;99.90;;;;;;7290672;32;20104;-62
2022/03/21 21:31:04;;;;;;;17.35;9.85;;;7.10;99.90;;;;;;7286269;32;20609;-62
2022/03/21 21:35:07;;;;;;;19.00;9.88;;;7.00;99.90;;;;;;7286323;32;20234;-63
2022/03/21 21:39:09;;;;;;;18.37;10.15;;;6.90;99.90;;;;;;7286247;32;20242;-61